Time;durP1;ratioP1;P1;durP2;ratioP2;P2;SDS_P1;SDS_P2;PMS_P1;PMS_P2;Temp;Humidity;BMP_temperature;BMP_pressure;BME280_temperature;BME280_humidity;BME280_pressure;Samples;Min_cycle;Max_cycle;Signal;HPM_P1;HPM_P2
2023/06/26 00:00:25;;;;;;;;;2.00;2.00;;;;;27.05;44.80;101153.72;2088632;28;44962;-56
2023/06/26 00:01:29;;;;;;;;;4.75;4.00;;;;;27.04;44.52;101162.03;2088641;28;46778;-56
2023/06/26 00:02:32;;;;;;;;;3.60;3.60;;;;;27.04;43.88;101160.16;2088066;28;45953;-56
2023/06/26 00:03:33;;;;;;;;;3.80;3.80;;;;;27.03;44.46;101161.16;2088605;28;45694;-57
2023/06/26 00:04:33;;;;;;;;;2.50;2.00;;;;;27.02;44.22;101162.16;2088932;28;47497;-59
2023/06/26 00:05:34;;;;;;;;;3.25;3.25;;;;;27.03;44.53;101163.03;2085563;28;45789;-56
2023/06/26 00:06:35;;;;;;;;;3.00;3.00;;;;;26.99;44.73;101160.53;2088258;28;45200;-57
2023/06/26 00:07:36;;;;;;;;;4.40;2.80;;;;;26.99;44.68;101156.94;2087978;28;46539;-56
2023/06/26 00:08:36;;;;;;;;;3.00;3.00;;;;;26.98;44.63;101153.34;2087768;28;46145;-58
2023/06/26 00:09:37;;;;;;;;;3.25;3.25;;;;;26.98;45.03;101160.66;2088232;28;46634;-56
2023/06/26 00:10:38;;;;;;;;;3.00;3.00;;;;;26.97;44.58;101161.66;2088069;28;47440;-58
2023/06/26 00:11:38;;;;;;;;;5.00;2.25;;;;;26.96;44.56;101163.50;2087875;28;45826;-56
2023/06/26 00:12:38;;;;;;;;;3.00;3.00;;;;;26.98;44.65;101163.38;2087396;28;46292;-55
2023/06/26 00:13:39;;;;;;;;;4.00;3.00;;;;;26.98;44.46;101163.38;2088390;28;46142;-55
2023/06/26 00:14:39;;;;;;;;;4.25;3.75;;;;;26.96;44.59;101168.09;2088224;28;46340;-55
2023/06/26 00:15:40;;;;;;;;;4.25;3.25;;;;;26.95;44.78;101164.50;2088590;28;46668;-57
2023/06/26 00:16:42;;;;;;;;;4.40;4.00;;;;;26.94;44.99;101165.50;2087881;28;46388;-57
2023/06/26 00:17:44;;;;;;;;;5.60;4.00;;;;;26.93;44.71;101161.06;2088201;28;46547;-57
2023/06/26 00:18:45;;;;;;;;;4.20;3.20;;;;;26.93;44.61;101157.44;2087824;28;46870;-55
2023/06/26 00:19:45;;;;;;;;;2.50;2.50;;;;;26.93;44.23;101161.06;2088047;28;46199;-56
2023/06/26 00:20:45;;;;;;;;;2.00;2.00;;;;;26.91;44.75;101165.75;2104500;28;47145;-57
2023/06/26 00:21:47;;;;;;;;;4.00;3.00;;;;;26.91;44.27;101173.03;2104467;27;46254;-56
2023/06/26 00:22:50;;;;;;;;;5.40;2.60;;;;;26.89;44.12;101170.44;2087653;28;46873;-56
2023/06/26 00:23:51;;;;;;;;;4.60;4.60;;;;;26.88;44.77;101173.31;2080261;28;46023;-58
2023/06/26 00:24:52;;;;;;;;;3.00;3.00;;;;;26.86;44.38;101173.44;2086278;28;46138;-57
2023/06/26 00:25:52;;;;;;;;;3.75;2.75;;;;;26.87;44.96;101171.56;2088408;28;45857;-56
2023/06/26 00:26:52;;;;;;;;;1.50;1.50;;;;;26.86;44.89;101180.75;2088153;28;46302;-57
2023/06/26 00:27:53;;;;;;;;;4.00;4.00;;;;;26.84;44.77;101175.44;2088440;28;46246;-57
2023/06/26 00:28:53;;;;;;;;;3.50;3.50;;;;;26.84;44.99;101171.84;2088276;28;46379;-58
2023/06/26 00:29:53;;;;;;;;;3.00;3.00;;;;;26.82;44.50;101173.84;2088104;28;46071;-56
2023/06/26 00:30:54;;;;;;;;;5.75;3.75;;;;;26.81;44.63;101174.81;2088460;28;45736;-58
2023/06/26 00:31:54;;;;;;;;;3.00;3.00;;;;;26.81;44.55;101180.28;2087732;28;46010;-57
2023/06/26 00:32:54;;;;;;;;;3.00;3.00;;;;;26.78;44.32;101184.09;2087601;28;46495;-57
2023/06/26 00:33:54;;;;;;;;;2.75;2.75;;;;;26.77;44.95;101186.94;2088174;28;45552;-56
2023/06/26 00:34:55;;;;;;;;;2.00;2.00;;;;;26.73;44.78;101177.31;2088021;28;46659;-57
2023/06/26 00:35:55;;;;;;;;;3.75;2.00;;;;;26.69;44.31;101185.72;2087293;28;46313;-56
2023/06/26 00:36:56;;;;;;;;;4.75;4.75;;;;;26.64;44.78;101182.50;2080207;28;45480;-57
2023/06/26 00:37:57;;;;;;;;;0.40;0.40;;;;;26.60;44.77;101191.91;2087758;28;46689;-55
2023/06/26 00:38:57;;;;;;;;;2.00;2.00;;;;;26.58;44.60;101179.44;2087680;28;46438;-56
2023/06/26 00:39:58;;;;;;;;;2.00;2.00;;;;;26.57;44.91;101180.44;2088171;28;45952;-55
2023/06/26 00:40:58;;;;;;;;;2.00;2.00;;;;;26.56;44.72;101192.31;2087706;28;45781;-57
2023/06/26 00:41:58;;;;;;;;;4.25;3.50;;;;;26.52;44.90;101183.50;2087422;28;46674;-57
2023/06/26 00:42:59;;;;;;;;;2.75;2.75;;;;;26.50;45.45;101180.03;2088464;28;45565;-56
2023/06/26 00:43:59;;;;;;;;;4.00;4.00;;;;;26.48;45.15;101186.59;2083638;28;45585;-55
2023/06/26 00:44:59;;;;;;;;;2.50;2.50;;;;;26.46;44.99;101196.75;2079768;28;46603;-58
2023/06/26 00:46:00;;;;;;;;;1.00;1.00;;;;;26.42;45.05;101190.66;2079265;28;46941;-57
2023/06/26 00:47:00;;;;;;;;;3.00;3.00;;;;;26.39;45.33;101191.78;2079848;28;45077;-56
2023/06/26 00:48:02;;;;;;;;;3.50;3.00;;;;;26.37;44.60;101192.91;2079778;28;47090;-58
2023/06/26 00:49:03;;;;;;;;;2.60;1.80;;;;;26.35;45.15;101195.72;2079958;28;46547;-55
2023/06/26 00:50:05;;;;;;;;;2.80;2.00;;;;;26.34;44.91;101193.13;2083704;28;45932;-56
2023/06/26 00:51:05;;;;;;;;;3.20;2.00;;;;;26.31;44.76;101194.25;2088440;28;45070;-55
2023/06/26 00:52:06;;;;;;;;;3.00;2.75;;;;;26.31;44.91;101194.25;2088275;28;46195;-58
2023/06/26 00:53:11;;;;;;;;;2.50;2.50;;;;;26.31;44.82;101194.25;2088094;28;46685;-57
2023/06/26 00:54:14;;;;;;;;;2.20;2.20;;;;;26.30;44.79;101192.53;2087732;28;46831;-58
2023/06/26 00:55:14;;;;;;;;;3.20;3.20;;;;;26.29;45.11;101198.06;2088230;28;46815;-57
2023/06/26 00:56:15;;;;;;;;;2.25;2.25;;;;;26.27;45.05;101198.19;2088097;28;46418;-57
2023/06/26 00:57:15;;;;;;;;;2.00;2.00;;;;;26.26;45.61;101196.44;2087937;28;46846;-60
2023/06/26 00:58:15;;;;;;;;;3.50;2.50;;;;;26.26;45.76;101199.19;2088319;28;46256;-58
2023/06/26 00:59:16;;;;;;;;;2.00;1.50;;;;;26.28;45.73;101193.59;2088000;28;45602;-58
2023/06/26 01:00:17;;;;;;;;;3.50;3.50;;;;;26.27;44.96;101192.75;2088121;28;46732;-57
2023/06/26 01:01:21;;;;;;;;;4.80;4.80;;;;;26.26;45.18;101196.44;2087802;28;46566;-59
2023/06/26 01:02:21;;;;;;;;;2.80;2.00;;;;;26.26;45.91;101196.44;2088273;28;46895;-58
2023/06/26 01:03:23;;;;;;;;;5.00;5.00;;;;;26.25;45.39;101202.88;2087973;28;46159;-57
2023/06/26 01:04:27;;;;;;;;;11.80;11.80;;;;;26.25;45.39;101207.47;2087817;28;45663;-55
2023/06/26 01:05:29;;;;;;;;;5.60;5.60;;;;;26.25;46.00;101202.03;2082596;28;46719;-57
2023/06/26 01:06:35;;;;;;;;;4.40;4.00;;;;;26.24;45.96;101205.72;2085858;28;45777;-57
2023/06/26 01:07:37;;;;;;;;;2.20;2.20;;;;;26.23;46.01;101201.28;2104304;28;45230;-57
2023/06/26 01:08:39;;;;;;;;;4.00;4.00;;;;;26.22;45.60;101207.72;2103382;27;45733;-55
2023/06/26 01:09:40;;;;;;;;;3.80;3.80;;;;;26.20;46.00;101207.84;2092080;28;45921;-57
2023/06/26 01:10:41;;;;;;;;;4.20;4.20;;;;;26.21;45.65;101201.41;2088493;28;46551;-56
2023/06/26 01:11:41;;;;;;;;;6.00;6.00;;;;;26.21;45.69;101204.13;2087460;28;45547;-56
2023/06/26 01:12:42;;;;;;;;;3.25;3.25;;;;;26.21;46.32;101208.72;2089962;28;46629;-55
2023/06/26 01:13:45;;;;;;;;;8.00;7.60;;;;;26.22;45.84;101205.00;2087514;28;46733;-56
2023/06/26 01:14:46;;;;;;;;;10.00;8.80;;;;;26.23;46.38;101201.28;2087527;28;46307;-55
2023/06/26 01:15:48;;;;;;;;;4.40;4.40;;;;;26.21;46.50;101201.41;2087882;28;47039;-56
2023/06/26 01:16:49;;;;;;;;;3.60;2.60;;;;;26.19;46.05;101197.94;2087477;28;46446;-56
2023/06/26 01:17:51;;;;;;;;;5.60;5.60;;;;;26.19;46.24;101207.97;2080265;28;47011;-56
2023/06/26 01:18:52;;;;;;;;;3.40;3.40;;;;;26.16;46.76;101209.06;2079796;28;46568;-56
2023/06/26 01:19:53;;;;;;;;;5.00;5.00;;;;;26.12;46.56;101207.56;2079240;28;46685;-56
2023/06/26 01:20:53;;;;;;;;;3.00;3.00;;;;;26.10;46.22;101204.09;2080114;28;45850;-56
2023/06/26 01:22:04;;;;;;;;;5.75;4.00;;;;;26.07;46.33;101215.25;2081047;28;46721;-58
2023/06/26 01:23:29;;;;;;;;;7.20;6.00;;;;;26.02;46.33;101210.13;2087951;28;46190;-56
2023/06/26 01:24:37;;;;;;;;;2.20;2.20;;;;;25.99;46.38;101202.22;2087896;28;46333;-55
2023/06/26 01:25:40;;;;;;;;;2.60;2.60;;;;;25.98;46.37;101216.81;2088059;28;46001;-54
2023/06/26 01:26:42;;;;;;;;;4.60;3.80;;;;;25.98;46.93;101216.81;2088691;28;45745;-55
2023/06/26 01:27:46;;;;;;;;;3.00;3.00;;;;;25.96;46.49;101220.66;2087832;28;46141;-55
2023/06/26 01:28:47;;;;;;;;;4.80;3.00;;;;;25.92;46.71;101222.75;2088004;28;46232;-57
2023/06/26 01:29:50;;;;;;;;;3.40;3.20;;;;;25.89;46.53;101217.53;2090794;28;46476;-56
2023/06/26 01:30:52;;;;;;;;;4.00;4.00;;;;;25.88;47.36;101223.09;2088093;28;46970;-57
2023/06/26 01:31:52;;;;;;;;;4.60;4.00;;;;;25.90;47.13;101221.13;2087740;28;46523;-56
2023/06/26 01:32:52;;;;;;;;;3.00;3.00;;;;;25.91;47.29;101222.84;2087902;28;47104;-55
2023/06/26 01:33:54;;;;;;;;;3.00;3.00;;;;;25.92;47.64;101228.19;2088032;28;45963;-55
2023/06/26 01:34:54;;;;;;;;;3.40;3.40;;;;;25.92;47.25;101225.47;2086908;28;46011;-55
2023/06/26 01:35:56;;;;;;;;;4.80;4.20;;;;;25.92;47.25;101230.00;2080067;28;47071;-56
2023/06/26 01:36:56;;;;;;;;;5.25;4.75;;;;;25.92;46.86;101230.00;2084279;28;46651;-55
2023/06/26 01:38:17;;;;;;;;;6.00;5.00;;;;;25.91;47.20;101233.72;2101302;28;45796;-56
2023/06/26 01:39:18;;;;;;;;;5.00;5.00;;;;;25.90;47.52;101234.72;2092141;28;47024;-57
2023/06/26 01:40:19;;;;;;;;;3.20;3.20;;;;;25.87;47.33;101243.13;2086325;28;45693;-56
2023/06/26 01:41:20;;;;;;;;;5.00;4.25;;;;;25.85;47.21;101237.81;2089871;28;45434;-56
2023/06/26 01:42:20;;;;;;;;;4.75;4.75;;;;;25.87;47.48;101238.53;2089855;28;45435;-55
2023/06/26 01:43:36;;;;;;;;;3.50;2.25;;;;;25.86;47.08;101246.81;2089571;28;46855;-56
2023/06/26 01:44:42;;;;;;;;;5.80;4.80;;;;;25.85;47.75;101245.09;2089564;28;46318;-55
2023/06/26 01:45:48;;;;;;;;;3.40;3.40;;;;;25.84;47.59;101244.22;2089621;28;45370;-56
2023/06/26 01:46:57;;;;;;;;;4.80;4.60;;;;;25.82;47.08;101240.75;2089537;28;46340;-55
2023/06/26 01:48:01;;;;;;;;;3.00;3.00;;;;;25.81;47.12;101248.06;2090414;28;45627;-57
2023/06/26 01:49:06;;;;;;;;;5.20;5.20;;;;;25.79;47.28;101244.59;2089432;28;46890;-55
2023/06/26 01:50:14;;;;;;;;;5.20;4.60;;;;;25.77;47.40;101251.09;2089458;28;46790;-55
2023/06/26 01:51:18;;;;;;;;;6.00;5.00;;;;;25.76;47.76;101252.97;2089016;28;46790;-56
2023/06/26 01:52:23;;;;;;;;;3.00;3.00;;;;;25.73;47.46;101255.91;2105420;28;46471;-57
2023/06/26 01:53:26;;;;;;;;;4.20;4.20;;;;;25.72;47.81;101253.31;2097865;28;46403;-56
2023/06/26 01:54:33;;;;;;;;;5.40;4.00;;;;;25.71;47.46;101257.91;2082570;28;46941;-56
2023/06/26 01:55:45;;;;;;;;;5.80;5.80;;;;;25.71;47.87;101260.63;2089267;28;46524;-56
2023/06/26 01:56:49;;;;;;;;;5.00;3.80;;;;;25.70;47.29;101253.44;2089386;28;45479;-57
2023/06/26 01:57:53;;;;;;;;;5.00;2.80;;;;;25.69;47.38;101253.56;2089209;28;46687;-55
2023/06/26 01:58:55;;;;;;;;;4.00;4.00;;;;;25.70;47.47;101258.03;2089266;28;45434;-54
2023/06/26 01:59:56;;;;;;;;;3.60;3.60;;;;;25.72;47.21;101258.75;2089690;28;45779;-56
2023/06/26 02:00:57;;;;;;;;;4.80;4.80;;;;;25.74;47.51;101254.94;2088460;28;46653;-56
2023/06/26 02:01:57;;;;;;;;;3.75;3.75;;;;;25.75;47.23;101250.38;2081435;28;45631;-56
2023/06/26 02:02:58;;;;;;;;;5.50;5.50;;;;;25.78;47.27;101258.28;2084913;28;45657;-55
2023/06/26 02:03:58;;;;;;;;;5.00;5.00;;;;;25.78;47.65;101250.97;2080423;28;45597;-56
2023/06/26 02:04:58;;;;;;;;;4.50;4.50;;;;;25.79;47.92;101260.91;2075117;28;46132;-56
2023/06/26 02:05:59;;;;;;;;;5.00;5.00;;;;;25.81;47.82;101260.78;2082993;28;45943;-58
2023/06/26 02:06:59;;;;;;;;;5.00;5.00;;;;;25.83;47.98;101266.97;2089485;28;46307;-55
2023/06/26 02:08:01;;;;;;;;;5.00;5.00;;;;;25.83;47.51;101261.53;2089423;28;45521;-54
2023/06/26 02:09:02;;;;;;;;;5.00;5.00;;;;;25.83;47.56;101260.66;2089268;28;45867;-56
2023/06/26 02:10:03;;;;;;;;;4.25;4.00;;;;;25.84;47.07;101267.84;2087001;28;47993;-56
2023/06/26 02:11:03;;;;;;;;;3.25;3.25;;;;;25.83;47.38;101272.41;2085946;28;45800;-55
2023/06/26 02:12:03;;;;;;;;;5.50;5.00;;;;;25.83;47.33;101266.09;2083537;28;45877;-58
2023/06/26 02:13:04;;;;;;;;;5.25;4.00;;;;;25.81;47.26;101272.53;2081224;28;46077;-55
2023/06/26 02:14:04;;;;;;;;;5.00;5.00;;;;;25.80;47.30;101265.34;2089518;28;45703;-54
2023/06/26 02:15:05;;;;;;;;;5.25;5.25;;;;;25.79;47.59;101273.59;2089311;28;44943;-56
2023/06/26 02:16:05;;;;;;;;;5.25;5.25;;;;;25.78;47.80;101274.59;2088888;28;47347;-57
2023/06/26 02:17:06;;;;;;;;;5.00;4.00;;;;;25.75;48.02;101264.81;2089871;28;46611;-57
2023/06/26 02:18:07;;;;;;;;;7.00;5.25;;;;;25.74;47.56;101268.53;2089111;28;47222;-55
2023/06/26 02:19:07;;;;;;;;;6.25;5.00;;;;;25.72;47.85;101264.19;2089896;28;46651;-57
2023/06/26 02:20:10;;;;;;;;;7.75;5.75;;;;;25.70;47.81;101267.03;2089395;28;46411;-56
2023/06/26 02:21:10;;;;;;;;;7.80;6.80;;;;;25.71;47.50;101267.91;2088100;28;46405;-55
2023/06/26 02:22:10;;;;;;;;;5.75;5.25;;;;;25.68;47.54;101263.53;2089120;28;45083;-55
2023/06/26 02:23:11;;;;;;;;;5.75;5.75;;;;;25.68;47.25;101268.97;2089809;28;45489;-57
2023/06/26 02:24:11;;;;;;;;;5.25;5.25;;;;;25.65;47.18;101271.91;2089163;28;45072;-57
2023/06/26 02:25:12;;;;;;;;;7.75;5.50;;;;;25.63;47.79;101270.28;2089179;28;46463;-56
2023/06/26 02:26:12;;;;;;;;;6.40;6.40;;;;;25.59;47.02;101268.81;2088934;28;45908;-56
2023/06/26 02:27:13;;;;;;;;;6.75;6.75;;;;;25.55;47.26;101272.75;2089070;28;48382;-56
2023/06/26 02:28:13;;;;;;;;;6.50;6.00;;;;;25.51;47.24;101274.81;2089217;28;45219;-55
2023/06/26 02:29:13;;;;;;;;;4.25;4.25;;;;;25.48;47.27;101272.34;2089114;28;46094;-55
2023/06/26 02:30:14;;;;;;;;;4.00;4.00;;;;;25.46;47.44;101274.31;2088770;28;46570;-57
2023/06/26 02:31:14;;;;;;;;;4.75;4.75;;;;;25.43;47.83;101272.69;2089566;28;45687;-56
2023/06/26 02:32:14;;;;;;;;;5.25;5.25;;;;;25.41;47.10;101273.75;2089146;28;45538;-57
2023/06/26 02:33:15;;;;;;;;;5.00;4.25;;;;;25.38;47.33;101272.16;2081535;28;45569;-56
2023/06/26 02:34:15;;;;;;;;;5.50;5.50;;;;;25.35;47.94;101280.53;2083329;28;46202;-56
2023/06/26 02:35:15;;;;;;;;;2.75;2.75;;;;;25.31;47.49;101273.59;2088643;28;45583;-57
2023/06/26 02:36:16;;;;;;;;;5.00;4.00;;;;;25.29;47.35;101278.28;2088898;28;45013;-57
2023/06/26 02:37:16;;;;;;;;;5.00;5.00;;;;;25.26;47.95;101278.50;2089011;28;45983;-55
2023/06/26 02:38:16;;;;;;;;;5.50;4.00;;;;;25.24;47.61;101277.75;2088298;28;46782;-57
2023/06/26 02:39:17;;;;;;;;;4.50;4.50;;;;;25.19;47.66;101285.38;2085590;28;46681;-56
2023/06/26 02:40:17;;;;;;;;;4.00;3.75;;;;;25.15;48.00;101283.84;2087953;28;46622;-56
2023/06/26 02:41:17;;;;;;;;;4.00;3.75;;;;;25.10;47.58;101278.78;2089410;28;45573;-56
2023/06/26 02:42:18;;;;;;;;;5.50;4.00;;;;;25.07;47.80;101292.59;2088883;28;46978;-56
2023/06/26 02:43:18;;;;;;;;;5.00;3.00;;;;;25.03;47.50;101288.38;2088843;28;46234;-57
2023/06/26 02:44:18;;;;;;;;;3.50;3.50;;;;;24.99;47.67;101297.66;2089299;28;46138;-57
2023/06/26 02:45:19;;;;;;;;;2.00;2.00;;;;;24.97;47.44;101306.91;2089273;28;45542;-55
2023/06/26 02:46:19;;;;;;;;;3.00;3.00;;;;;24.94;47.59;101303.44;2088925;28;45672;-58
2023/06/26 02:47:20;;;;;;;;;3.00;2.00;;;;;24.90;47.58;101303.75;2089146;28;45573;-57
2023/06/26 02:48:20;;;;;;;;;1.75;1.75;;;;;24.86;47.57;101300.41;2088114;28;46331;-58
2023/06/26 02:49:20;;;;;;;;;3.00;2.00;;;;;24.84;47.55;101304.22;2088443;28;45639;-59
2023/06/26 02:50:21;;;;;;;;;2.00;2.00;;;;;24.81;47.08;101299.88;2088965;28;45449;-59
2023/06/26 02:51:21;;;;;;;;;2.25;2.00;;;;;24.80;47.27;101305.41;2089058;28;46246;-59
2023/06/26 02:52:21;;;;;;;;;1.75;1.75;;;;;24.78;47.27;101308.25;2088473;28;45683;-58
2023/06/26 02:53:22;;;;;;;;;1.50;1.50;;;;;24.77;47.65;101311.03;2088806;28;45856;-58
2023/06/26 02:54:22;;;;;;;;;1.00;1.00;;;;;24.75;47.24;101315.72;2088476;28;46220;-59
2023/06/26 02:55:22;;;;;;;;;2.50;1.25;;;;;24.75;47.43;101313.88;2089159;28;45420;-57
2023/06/26 02:56:23;;;;;;;;;2.00;2.00;;;;;24.73;47.07;101315.84;2088737;28;46680;-58
2023/06/26 02:57:23;;;;;;;;;3.00;2.00;;;;;24.72;47.42;101314.09;2088937;28;45688;-57
2023/06/26 02:58:23;;;;;;;;;2.00;1.75;;;;;24.71;47.21;101319.63;2089189;28;45373;-58
2023/06/26 02:59:23;;;;;;;;;1.50;1.50;;;;;24.69;47.30;101318.88;2089136;28;45913;-58
2023/06/26 03:00:24;;;;;;;;;2.25;1.00;;;;;24.66;47.18;101317.25;2088764;28;45538;-54
2023/06/26 03:01:24;;;;;;;;;4.00;2.00;;;;;24.65;47.40;101320.97;2089127;28;45606;-58
2023/06/26 03:02:25;;;;;;;;;2.00;2.00;;;;;24.63;47.07;101315.63;2089254;28;46052;-59
2023/06/26 03:03:25;;;;;;;;;1.50;1.50;;;;;24.63;47.49;101318.31;2088904;28;45491;-58
2023/06/26 03:04:25;;;;;;;;;2.25;2.25;;;;;24.65;47.71;101312.81;2088882;28;45650;-57
2023/06/26 03:05:26;;;;;;;;;1.00;1.00;;;;;24.67;47.34;101315.41;2083308;28;45945;-56
2023/06/26 03:06:27;;;;;;;;;1.00;1.00;;;;;24.69;47.12;101314.31;2086394;28;44940;-58
2023/06/26 03:07:27;;;;;;;;;5.20;4.00;;;;;24.70;47.34;101312.47;2088663;28;46911;-58
2023/06/26 03:08:28;;;;;;;;;1.50;0.00;;;;;24.70;47.01;101313.34;2089128;28;45695;-56
2023/06/26 03:09:28;;;;;;;;;2.00;2.00;;;;;24.70;47.17;101315.19;2091131;28;46284;-57
2023/06/26 03:10:28;;;;;;;;;1.00;1.00;;;;;24.70;47.10;101313.34;2088304;28;45169;-58
2023/06/26 03:11:28;;;;;;;;;0.25;0.25;;;;;24.69;46.84;101308.03;2087934;28;46236;-57
2023/06/26 03:12:29;;;;;;;;;2.25;2.25;;;;;24.67;46.65;101319.00;2088670;28;46562;-57
2023/06/26 03:13:29;;;;;;;;;2.75;1.75;;;;;24.65;46.78;101319.13;2090452;28;45809;-57
2023/06/26 03:14:31;;;;;;;;;3.50;1.00;;;;;24.63;46.70;101325.59;2089909;28;46860;-58
2023/06/26 03:15:32;;;;;;;;;1.20;1.20;;;;;24.60;46.80;101323.97;2088694;28;46047;-58
2023/06/26 03:16:32;;;;;;;;;0.00;0.00;;;;;24.59;46.40;101321.38;2088028;28;45754;-58
2023/06/26 03:17:33;;;;;;;;;0.00;0.00;;;;;24.56;46.85;101318.88;2080779;28;45919;-58
2023/06/26 03:18:33;;;;;;;;;1.00;1.00;;;;;24.52;46.78;101314.63;2080217;28;45892;-59
2023/06/26 03:19:33;;;;;;;;;1.25;1.25;;;;;24.50;47.39;101322.88;2080425;28;46869;-54
2023/06/26 03:20:33;;;;;;;;;1.25;1.25;;;;;24.49;47.15;101323.00;2080663;28;45437;-56
2023/06/26 03:21:34;;;;;;;;;1.75;1.00;;;;;24.47;46.78;101314.97;2096165;28;47306;-57
2023/06/26 03:22:34;;;;;;;;;1.00;1.00;;;;;24.47;46.95;101314.09;2097450;27;45686;-57
2023/06/26 03:23:34;;;;;;;;;0.00;0.00;;;;;24.44;46.93;101326.03;2086504;28;46058;-57
2023/06/26 03:24:35;;;;;;;;;1.75;0.75;;;;;24.44;46.84;101322.47;2081151;28;45529;-58
2023/06/26 03:25:35;;;;;;;;;3.25;1.00;;;;;24.42;47.09;101319.88;2088818;28;46134;-58
2023/06/26 03:26:35;;;;;;;;;3.00;2.00;;;;;24.42;47.23;101329.84;2088346;28;46485;-56
2023/06/26 03:27:36;;;;;;;;;2.67;0.67;;;;;24.42;47.29;101324.41;2088857;28;45943;-56
2023/06/26 03:28:36;;;;;;;;;1.00;1.00;;;;;24.42;47.33;101333.44;2088351;28;46273;-56
2023/06/26 03:29:36;;;;;;;;;1.00;1.00;;;;;24.44;47.42;101327.88;2089206;28;45657;-58
2023/06/26 03:30:36;;;;;;;;;3.00;1.33;;;;;24.45;47.33;101325.06;2088632;28;44966;-56
2023/06/26 03:31:37;;;;;;;;;0.00;0.00;;;;;24.47;47.30;101324.94;2086110;28;45764;-58
2023/06/26 03:32:37;;;;;;;;;0.00;0.00;;;;;24.48;47.03;101329.41;2087926;28;46343;-58
2023/06/26 03:33:37;;;;;;;;;3.00;3.00;;;;;24.47;47.19;101330.38;2088353;28;45781;-57
2023/06/26 03:34:38;;;;;;;;;2.00;2.00;;;;;24.46;47.26;101334.94;2088616;28;46520;-57
2023/06/26 03:35:38;;;;;;;;;0.00;0.00;;;;;24.45;47.18;101341.34;2082401;28;46731;-57
2023/06/26 03:36:38;;;;;;;;;2.00;1.00;;;;;24.45;47.00;101326.91;2080254;28;45561;-55
2023/06/26 03:37:40;;;;;;;;;0.67;0.67;;;;;24.41;47.06;101328.97;2080966;28;45711;-61
2023/06/26 03:38:41;;;;;;;;;3.25;2.00;;;;;24.37;47.36;101335.56;2080460;28;46029;-57
2023/06/26 03:39:41;;;;;;;;;1.00;1.00;;;;;24.35;47.19;101326.69;2080259;28;45150;-57
2023/06/26 03:40:42;;;;;;;;;2.33;1.33;;;;;24.34;47.10;101330.38;2087140;28;46291;-57
2023/06/26 03:41:42;;;;;;;;;2.00;1.67;;;;;24.32;47.27;101333.19;2088657;28;45947;-56
2023/06/26 03:42:42;;;;;;;;;1.00;1.00;;;;;24.33;47.39;101348.50;2088395;28;45697;-58
2023/06/26 03:43:42;;;;;;;;;1.00;1.00;;;;;24.35;47.32;101341.09;2091206;28;45827;-57
2023/06/26 03:44:43;;;;;;;;;2.00;1.00;;;;;24.36;47.52;101336.56;2088814;28;45906;-57
2023/06/26 03:45:43;;;;;;;;;0.67;0.67;;;;;24.36;46.98;101340.13;2088733;28;46635;-57
2023/06/26 03:46:43;;;;;;;;;1.00;1.00;;;;;24.36;47.19;101345.56;2088806;28;45875;-58
2023/06/26 03:47:44;;;;;;;;;0.33;0.33;;;;;24.37;47.32;101343.72;2088641;28;45278;-56
2023/06/26 03:48:44;;;;;;;;;1.67;0.67;;;;;24.35;47.08;101346.53;2088623;28;45216;-58
2023/06/26 03:49:44;;;;;;;;;2.33;2.33;;;;;24.33;47.22;101342.19;2088874;28;45809;-58
2023/06/26 03:50:45;;;;;;;;;2.33;2.33;;;;;24.31;47.45;101344.16;2088998;28;45848;-57
2023/06/26 03:51:45;;;;;;;;;2.33;1.33;;;;;24.27;47.43;101346.19;2088139;28;46645;-56
2023/06/26 03:52:46;;;;;;;;;1.67;1.33;;;;;24.26;46.97;101349.84;2088500;28;46984;-58
2023/06/26 03:53:46;;;;;;;;;1.00;1.00;;;;;24.26;47.52;101354.41;2088217;28;46353;-57
2023/06/26 03:54:48;;;;;;;;;1.00;1.00;;;;;24.26;47.45;101357.97;2087437;28;47031;-58
2023/06/26 03:55:48;;;;;;;;;1.00;1.00;;;;;24.26;47.19;101365.25;2087844;28;46372;-58
2023/06/26 03:56:49;;;;;;;;;4.00;1.00;;;;;24.26;47.47;101365.25;2088019;28;46354;-56
2023/06/26 03:57:49;;;;;;;;;1.00;1.00;;;;;24.24;47.34;101368.06;2082887;28;47076;-56
2023/06/26 03:58:49;;;;;;;;;4.00;3.00;;;;;24.24;47.54;101367.19;2086059;28;45889;-56
2023/06/26 03:59:50;;;;;;;;;1.33;1.00;;;;;24.22;47.22;101367.31;2086718;28;45590;-57
2023/06/26 04:00:51;;;;;;;;;3.00;2.00;;;;;24.20;47.42;101369.25;2088748;28;45519;-57
2023/06/26 04:01:52;;;;;;;;;2.00;2.00;;;;;24.18;47.73;101371.22;2088498;28;46613;-57
2023/06/26 04:02:52;;;;;;;;;2.00;1.00;;;;;24.17;47.63;101369.47;2085090;28;46623;-57
2023/06/26 04:03:53;;;;;;;;;1.00;1.00;;;;;24.14;47.80;101376.94;2082654;28;45558;-57
2023/06/26 04:04:53;;;;;;;;;2.00;2.00;;;;;24.12;47.78;101376.19;2087569;28;45613;-56
2023/06/26 04:05:54;;;;;;;;;1.00;1.00;;;;;24.10;47.44;101376.28;2085150;28;46292;-57
2023/06/26 04:06:54;;;;;;;;;3.00;3.00;;;;;24.07;47.65;101379.22;2088433;28;45694;-58
2023/06/26 04:07:55;;;;;;;;;3.00;1.00;;;;;24.04;47.93;101382.13;2083672;28;46436;-57
2023/06/26 04:08:55;;;;;;;;;0.00;0.00;;;;;24.02;48.07;101379.53;2085980;28;45594;-57
2023/06/26 04:09:55;;;;;;;;;4.67;3.67;;;;;23.97;48.12;101376.25;2086851;28;45601;-56
2023/06/26 04:10:57;;;;;;;;;1.00;1.00;;;;;23.94;47.94;101384.59;2088478;28;46249;-56
2023/06/26 04:11:57;;;;;;;;;2.25;2.25;;;;;23.93;48.18;101376.56;2088833;28;45649;-57
2023/06/26 04:12:58;;;;;;;;;3.00;1.33;;;;;23.90;48.18;101377.66;2087648;28;46373;-56
2023/06/26 04:13:58;;;;;;;;;1.00;1.00;;;;;23.90;48.54;101383.06;2088541;28;46545;-57
2023/06/26 04:14:58;;;;;;;;;2.00;2.00;;;;;23.89;48.46;101386.75;2088671;28;45864;-56
2023/06/26 04:15:59;;;;;;;;;1.00;1.00;;;;;23.89;48.18;101384.03;2083673;28;45428;-56
2023/06/26 04:17:01;;;;;;;;;5.67;4.00;;;;;23.90;48.45;101384.91;2084784;28;46350;-55
2023/06/26 04:18:02;;;;;;;;;2.00;1.50;;;;;23.89;48.43;101389.47;2088705;28;45519;-57
2023/06/26 04:19:04;;;;;;;;;1.00;1.00;;;;;23.90;48.48;101387.63;2088238;28;46400;-56
2023/06/26 04:20:25;;;;;;;;;2.00;1.00;;;;;23.89;48.47;101394.00;2087238;28;45602;-56
2023/06/26 04:21:25;;;;;;;;;0.50;0.50;;;;;23.89;48.45;101388.59;2094340;28;46608;-56
2023/06/26 04:22:26;;;;;;;;;3.00;3.00;;;;;23.87;48.65;101398.63;2092910;28;46226;-57
2023/06/26 04:23:26;;;;;;;;;3.33;1.67;;;;;23.86;48.51;101386.94;2095766;28;45441;-58
2023/06/26 04:24:27;;;;;;;;;3.00;3.00;;;;;23.87;48.62;101387.78;2095223;28;45861;-57
2023/06/26 04:25:29;;;;;;;;;4.33;2.33;;;;;23.87;48.75;101390.50;2088441;28;46135;-56
2023/06/26 04:26:29;;;;;;;;;2.75;2.75;;;;;23.86;48.63;101392.34;2090233;28;46405;-57
2023/06/26 04:27:30;;;;;;;;;2.00;2.00;;;;;23.86;48.56;101392.34;2093164;28;45464;-57
2023/06/26 04:28:32;;;;;;;;;2.00;2.00;;;;;23.85;48.46;101392.47;2095647;28;46667;-57
2023/06/26 04:29:32;;;;;;;;;1.75;1.75;;;;;23.84;48.65;101397.00;2095762;28;46759;-58
2023/06/26 04:30:33;;;;;;;;;1.33;1.33;;;;;23.85;48.79;101392.47;2087961;28;47183;-58
2023/06/26 04:31:33;;;;;;;;;1.00;1.00;;;;;23.84;48.90;101394.31;2082599;28;46843;-57
2023/06/26 04:32:34;;;;;;;;;1.67;1.00;;;;;23.85;48.99;101398.75;2087073;28;46689;-57
2023/06/26 04:33:38;;;;;;;;;4.33;3.67;;;;;23.86;48.61;101394.19;2087463;28;45661;-57
2023/06/26 04:34:41;;;;;;;;;2.75;2.75;;;;;23.85;48.93;101403.31;2079088;28;46105;-57
2023/06/26 04:35:41;;;;;;;;;3.00;2.75;;;;;23.87;49.09;101395.94;2079216;28;46756;-58
2023/06/26 04:36:46;;;;;;;;;2.00;2.00;;;;;23.86;48.87;101400.47;2094453;28;46674;-57
2023/06/26 04:37:46;;;;;;;;;4.00;2.00;;;;;23.87;48.53;101404.06;2094222;28;45880;-57
2023/06/26 04:38:48;;;;;;;;;4.00;2.33;;;;;23.86;48.77;101400.47;2095877;28;45130;-57
2023/06/26 04:39:48;;;;;;;;;3.50;2.75;;;;;23.87;48.92;101401.34;2095230;28;45761;-57
2023/06/26 04:40:49;;;;;;;;;5.67;2.00;;;;;23.86;48.73;101400.47;2096061;28;45063;-57
2023/06/26 04:41:49;;;;;;;;;5.00;3.00;;;;;23.85;48.73;101396.03;2095816;28;46317;-56
2023/06/26 04:42:49;;;;;;;;;1.67;1.67;;;;;23.84;48.39;101402.44;2095672;28;45124;-56
2023/06/26 04:43:50;;;;;;;;;2.00;1.00;;;;;23.85;48.93;101400.59;2095743;28;46291;-57
2023/06/26 04:44:50;;;;;;;;;2.00;2.00;;;;;23.83;48.86;101395.28;2087520;28;46817;-57